Time;durP1;ratioP1;P1;durP2;ratioP2;P2;SDS_P1;SDS_P2;PMS_P1;PMS_P2;Temp;Humidity;BMP_temperature;BMP_pressure;BME280_temperature;BME280_humidity;BME280_pressure;Samples;Min_cycle;Max_cycle;Signal;HPM_P1;HPM_P2
2022/10/23 00:01:15;;;;;;;12.48;8.32;;;;;;;10.55;100.00;101326.00;5073062;28;20040;-52
2022/10/23 00:03:46;;;;;;;16.50;8.50;;;;;;;10.56;100.00;101324.22;5073173;28;20048;-51
2022/10/23 00:06:15;;;;;;;10.90;8.02;;;;;;;10.55;100.00;101317.25;5073101;28;20483;-53
2022/10/23 00:08:44;;;;;;;15.75;7.75;;;;;;;10.54;100.00;101302.41;5073011;28;20123;-53
2022/10/23 00:11:14;;;;;;;10.95;7.50;;;;;;;10.56;100.00;101301.38;5072029;28;20044;-51
2022/10/23 00:13:42;;;;;;;13.27;8.60;;;;;;;10.57;100.00;101300.44;5069705;28;20048;-52
2022/10/23 00:16:11;;;;;;;11.65;7.68;;;;;;;10.56;100.00;101293.50;5071327;28;20038;-51
2022/10/23 00:18:40;;;;;;;15.15;7.80;;;;;;;10.54;100.00;101284.84;5072832;28;20048;-53
2022/10/23 00:21:11;;;;;;;13.38;7.72;;;;;;;10.55;100.00;101291.81;5072627;28;20045;-50
2022/10/23 00:23:40;;;;;;;13.18;7.82;;;;;;;10.51;100.00;101289.44;5072604;28;20059;-49
2022/10/23 00:26:13;;;;;;;12.18;8.25;;;;;;;10.47;100.00;101288.75;5072359;28;20044;-50
2022/10/23 00:28:42;;;;;;;12.75;8.30;;;;;;;10.45;100.00;101295.91;5072675;28;20048;-50
2022/10/23 00:31:13;;;;;;;12.48;7.75;;;;;;;10.42;100.00;101290.81;5072609;28;20360;-51
2022/10/23 00:33:42;;;;;;;12.35;7.55;;;;;;;10.44;100.00;101296.84;5072648;28;20422;-52
2022/10/23 00:36:13;;;;;;;14.77;7.85;;;;;;;10.43;100.00;101295.13;5070515;28;20498;-53
2022/10/23 00:38:41;;;;;;;12.45;6.90;;;;;;;10.36;100.00;101293.78;5067959;28;20056;-48
2022/10/23 00:41:21;;;;;;;11.00;8.18;;;;;;;10.34;100.00;101287.75;5068300;28;20064;-49
2022/10/23 00:43:59;;;;;;;11.63;7.97;;;;;;;10.35;100.00;101289.47;5069394;28;20055;-48
2022/10/23 00:46:27;;;;;;;13.38;8.77;;;;;;;10.31;100.00;101289.63;5071754;28;20437;-51
2022/10/23 00:48:57;;;;;;;12.77;8.73;;;;;;;10.32;100.00;101295.72;5068832;28;20052;-49
2022/10/23 00:51:29;;;;;;;13.68;7.93;;;;;;;10.30;100.00;101290.53;5070304;28;20514;-52
2022/10/23 00:54:02;;;;;;;12.63;8.32;;;;;;;10.29;100.00;101280.97;5072427;28;20052;-51
2022/10/23 00:56:51;;;;;;;11.02;7.90;;;;;;;10.25;100.00;101279.47;5072087;28;20090;-48
2022/10/23 00:59:19;;;;;;;12.15;8.40;;;;;;;10.24;100.00;101280.38;5072122;28;20123;-50
2022/10/23 01:01:48;;;;;;;11.55;8.43;;;;;;;10.24;100.00;101283.03;5072106;28;20540;-50
2022/10/23 01:04:16;;;;;;;12.48;8.60;;;;;;;10.24;100.00;101280.38;5072257;28;20044;-52
2022/10/23 01:06:57;;;;;;;12.15;8.57;;;;;;;10.25;100.00;101278.59;5072132;28;20625;-52
2022/10/23 01:09:33;;;;;;;12.68;7.75;;;;;;;10.18;100.00;101280.72;5072161;28;20458;-50
2022/10/23 01:12:10;;;;;;;12.73;8.10;;;;;;;10.16;100.00;101277.34;5071664;28;20055;-52
2022/10/23 01:14:48;;;;;;;13.35;7.70;;;;;;;10.19;100.00;101273.72;5072101;28;20533;-51
2022/10/23 01:17:25;;;;;;;10.52;7.85;;;;;;;10.14;100.00;101273.94;5071966;28;20395;-50
2022/10/23 01:20:07;;;;;;;12.55;7.80;;;;;;;10.13;100.00;101275.75;5072042;28;20076;-53
2022/10/23 01:22:54;;;;;;;13.50;8.65;;;;;;;10.11;100.00;101277.59;5072209;28;20093;-51
2022/10/23 01:25:33;;;;;;;11.15;8.15;;;;;;;10.10;100.00;101278.53;5069696;28;20044;-52
2022/10/23 01:28:08;;;;;;;14.48;8.73;;;;;;;10.07;100.00;101283.13;5068370;28;20044;-52
2022/10/23 01:30:42;;;;;;;16.48;8.98;;;;;;;10.04;100.00;101275.41;5071963;28;20447;-49
2022/10/23 01:33:14;;;;;;;15.45;9.05;;;;;;;10.03;100.00;101269.28;5071982;28;20051;-57
2022/10/23 01:35:47;;;;;;;14.13;8.65;;;;;;;10.04;100.00;101262.28;5071951;28;20079;-57
2022/10/23 01:38:19;;;;;;;12.68;8.55;;;;;;;10.06;100.00;101257.75;5071796;28;20098;-56
2022/10/23 01:40:56;;;;;;;11.73;8.23;;;;;;;10.07;100.00;101254.22;5068490;28;20388;-57
2022/10/23 01:43:29;;;;;;;12.30;8.50;;;;;;;10.08;100.00;101261.16;5068277;28;20440;-57
2022/10/23 01:46:01;;;;;;;12.43;8.20;;;;;;;10.07;100.00;101260.31;5068699;28;20063;-57
2022/10/23 01:48:33;;;;;;;11.75;8.15;;;;;;;10.08;100.00;101263.78;5068446;28;20063;-57
2022/10/23 01:51:05;;;;;;;11.43;8.23;;;;;;;10.09;100.00;101254.97;5070659;28;20561;-57
2022/10/23 01:53:40;;;;;;;14.50;8.57;;;;;;;10.07;100.00;101239.28;5067482;28;20049;-56
2022/10/23 01:56:12;;;;;;;13.88;9.00;;;;;;;10.09;100.00;101245.31;5069814;28;20052;-51
2022/10/23 01:58:44;;;;;;;10.80;8.05;;;;;;;10.08;100.00;101245.41;5069542;28;20670;-57
2022/10/23 02:01:14;;;;;;;15.27;8.97;;;;;;;10.08;100.00;101243.59;5066414;28;20048;-57
2022/10/23 02:03:44;;;;;;;13.15;8.18;;;;;;;10.08;100.00;101235.72;5068626;28;20457;-56
2022/10/23 02:06:12;;;;;;;11.82;7.82;;;;;;;10.08;100.00;101234.88;5071531;28;20040;-57
2022/10/23 02:08:41;;;;;;;10.68;7.25;;;;;;;10.10;100.00;101233.88;5072064;28;20426;-56
2022/10/23 02:11:11;;;;;;;11.40;8.07;;;;;;;10.08;100.00;101235.72;5071548;28;20479;-57
2022/10/23 02:13:45;;;;;;;12.55;8.50;;;;;;;10.08;100.00;101235.72;5071657;28;20048;-56
2022/10/23 02:16:23;;;;;;;12.60;8.63;;;;;;;10.06;100.00;101224.47;5068249;28;20122;-56
2022/10/23 02:18:57;;;;;;;14.60;8.38;;;;;;;10.04;100.00;101218.44;5068223;28;20044;-57
2022/10/23 02:21:34;;;;;;;12.10;8.35;;;;;;;10.02;100.00;101222.09;5067776;28;20044;-57
2022/10/23 02:24:07;;;;;;;14.23;8.40;;;;;;;10.01;100.00;101217.75;5071428;28;20127;-56
2022/10/23 02:26:40;;;;;;;13.55;7.95;;;;;;;10.00;100.00;101216.09;5071911;28;20065;-57
2022/10/23 02:29:15;;;;;;;14.80;8.50;;;;;;;10.02;100.00;101201.94;5071490;28;20486;-57
2022/10/23 02:31:44;;;;;;;12.43;8.18;;;;;;;10.00;100.00;101200.31;5073537;28;20040;-57
2022/10/23 02:34:12;;;;;;;10.57;7.68;;;;;;;9.98;100.00;101189.91;5074883;28;20048;-57
2022/10/23 02:36:41;;;;;;;12.32;8.13;;;;;;;9.99;100.00;101204.72;5074809;28;20040;-55
2022/10/23 02:39:09;;;;;;;12.27;8.23;;;;;;;10.01;100.00;101200.22;5073801;28;20068;-56
2022/10/23 02:41:43;;;;;;;14.90;8.23;;;;;;;10.02;100.00;101203.69;5071967;28;20483;-56
2022/10/23 02:44:24;;;;;;;14.40;7.63;;;;;;;10.00;100.00;101205.56;5070669;28;20534;-56
2022/10/23 02:47:00;;;;;;;11.15;7.60;;;;;;;9.99;100.00;101207.34;5071724;28;20075;-56
2022/10/23 02:49:36;;;;;;;13.80;8.07;;;;;;;9.96;100.00;101204.88;5070400;28;20040;-56
2022/10/23 02:52:13;;;;;;;12.10;8.02;;;;;;;9.95;100.00;101211.06;5071084;28;20049;-54
2022/10/23 02:54:57;;;;;;;10.93;7.70;;;;;;;9.87;100.00;101214.16;5072159;28;20506;-55
2022/10/23 02:57:32;;;;;;;11.80;7.20;;;;;;;9.84;100.00;101203.78;5074405;28;20063;-57
2022/10/23 03:00:10;;;;;;;13.50;8.07;;;;;;;9.84;100.00;101201.16;5073016;28;20105;-60
2022/10/23 03:02:41;;;;;;;14.10;7.55;;;;;;;9.79;100.00;101198.81;5073277;28;20510;-57
2022/10/23 03:05:13;;;;;;;11.25;7.47;;;;;;;9.77;100.00;101199.81;5070467;28;20091;-56
2022/10/23 03:07:46;;;;;;;14.35;8.77;;;;;;;9.81;100.00;101196.09;5073197;28;20068;-56
2022/10/23 03:10:14;;;;;;;11.00;7.78;;;;;;;9.80;100.00;101182.13;5073071;28;20052;-56
2022/10/23 03:12:42;;;;;;;11.38;7.45;;;;;;;9.80;100.00;101178.63;5070585;28;20094;-56
2022/10/23 03:15:13;;;;;;;12.55;8.13;;;;;;;9.78;100.00;101167.38;5071730;28;20398;-57
2022/10/23 03:17:42;;;;;;;13.43;8.13;;;;;;;9.80;100.00;101170.75;5073963;28;20049;-56
2022/10/23 03:20:11;;;;;;;12.43;8.45;;;;;;;9.80;100.00;101168.13;5072700;28;20102;-56
2022/10/23 03:22:39;;;;;;;12.75;8.20;;;;;;;9.79;100.00;101167.28;5072357;28;20049;-56
2022/10/23 03:25:09;;;;;;;11.93;7.57;;;;;;;9.77;100.00;101163.88;5073831;28;20048;-56
2022/10/23 03:27:37;;;;;;;11.68;8.35;;;;;;;9.80;100.00;101160.25;5071404;28;20080;-56
2022/10/23 03:30:06;;;;;;;13.95;8.20;;;;;;;9.78;100.00;101155.09;5070593;28;20106;-56
2022/10/23 03:32:36;;;;;;;11.85;7.57;;;;;;;9.80;100.00;101157.63;5073111;28;20048;-56
2022/10/23 03:35:05;;;;;;;13.00;7.45;;;;;;;9.79;100.00;101148.06;5073375;28;20048;-55
2022/10/23 03:37:33;;;;;;;14.95;7.88;;;;;;;9.81;100.00;101146.19;5070880;28;20564;-56
2022/10/23 03:40:01;;;;;;;13.32;8.23;;;;;;;9.80;100.00;101145.34;5069840;28;20052;-56
2022/10/23 03:42:29;;;;;;;12.00;7.55;;;;;;;9.82;100.00;101134.75;5073463;28;20491;-56
2022/10/23 03:44:58;;;;;;;12.73;7.38;;;;;;;9.81;100.00;101133.88;5073481;28;20048;-57
2022/10/23 03:47:26;;;;;;;11.85;7.80;;;;;;;9.82;100.00;101137.38;5071030;28;20136;-57
2022/10/23 03:49:55;;;;;;;14.00;8.07;;;;;;;9.81;100.00;101143.56;5069469;28;20056;-51
2022/10/23 03:52:23;;;;;;;11.75;7.80;;;;;;;9.84;100.00;101138.13;5070304;28;20131;-57
2022/10/23 03:54:56;;;;;;;14.48;8.13;;;;;;;9.84;100.00;101130.25;5068020;28;20071;-57
2022/10/23 03:57:25;;;;;;;12.00;8.20;;;;;;;9.85;100.00;101121.44;5068529;28;20040;-55
2022/10/23 03:59:53;;;;;;;14.52;8.05;;;;;;;9.87;100.00;101121.34;5069213;28;20070;-56
2022/10/23 04:02:21;;;;;;;13.07;7.40;;;;;;;9.85;100.00;101112.72;5069643;28;20051;-57
2022/10/23 04:04:49;;;;;;;13.57;7.75;;;;;;;9.87;100.00;101116.94;5072822;28;20502;-56
2022/10/23 04:07:19;;;;;;;13.40;7.55;;;;;;;9.88;100.00;101115.16;5071232;28;20695;-57
2022/10/23 04:09:47;;;;;;;13.70;7.85;;;;;;;9.89;100.00;101109.81;5068444;28;20087;-57
2022/10/23 04:12:15;;;;;;;14.82;7.97;;;;;;;9.92;100.00;101112.25;5069669;28;20556;-56
2022/10/23 04:14:43;;;;;;;12.50;7.60;;;;;;;9.95;100.00;101109.47;5072562;28;20502;-56
2022/10/23 04:17:11;;;;;;;14.88;7.63;;;;;;;9.98;100.00;101098.78;5069560;28;20056;-56
2022/10/23 04:19:39;;;;;;;12.88;7.88;;;;;;;10.00;100.00;101098.69;5070056;28;20484;-57
2022/10/23 04:22:07;;;;;;;15.25;8.45;;;;;;;10.02;100.00;101088.94;5070443;28;20055;-57
2022/10/23 04:24:37;;;;;;;17.77;9.23;;;;;;;10.03;100.00;101081.88;5067892;28;20510;-56
2022/10/23 04:27:05;;;;;;;12.48;8.13;;;;;;;10.07;100.00;101081.59;5068548;28;20067;-57
2022/10/23 04:29:33;;;;;;;20.40;9.45;;;;;;;10.14;100.00;101082.09;5069915;28;20102;-56
2022/10/23 04:32:02;;;;;;;15.40;8.05;;;;;;;10.17;100.00;101081.94;5069509;28;20045;-56
2022/10/23 04:34:30;;;;;;;14.80;8.45;;;;;;;10.24;100.00;101085.88;5085998;28;20141;-56
2022/10/23 04:36:58;;;;;;;18.85;9.32;;;;;;;10.29;100.00;101086.44;5072350;28;20059;-57
2022/10/23 04:39:26;;;;;;;16.45;8.85;;;;;;;10.34;100.00;101090.59;5072456;28;20044;-56
2022/10/23 04:41:56;;;;;;;16.48;8.10;;;;;;;10.41;100.00;101094.56;5072246;28;20044;-56
2022/10/23 04:44:24;;;;;;;18.95;8.57;;;;;;;10.36;100.00;101078.22;5071539;28;20488;-55
2022/10/23 04:46:52;;;;;;;13.65;7.45;;;;;;;10.36;100.00;101073.81;5068745;28;20487;-56
2022/10/23 04:49:20;;;;;;;17.27;8.75;;;;;;;10.36;100.00;101080.84;5068917;28;20052;-55
2022/10/23 04:51:48;;;;;;;15.80;8.20;;;;;;;10.38;100.00;101086.88;5071515;28;20055;-55
2022/10/23 04:54:16;;;;;;;15.13;8.00;;;;;;;10.39;100.00;101075.38;5072452;28;20063;-55
2022/10/23 04:56:45;;;;;;;14.63;7.63;;;;;;;10.40;100.00;101077.94;5072513;28;20123;-55
2022/10/23 04:59:14;;;;;;;12.07;7.55;;;;;;;10.41;100.00;101068.25;5071067;28;20044;-56
2022/10/23 05:01:42;;;;;;;13.82;7.35;;;;;;;10.41;100.00;101065.63;5069084;28;20119;-55
2022/10/23 05:04:10;;;;;;;22.08;8.27;;;;;;;10.44;100.00;101055.78;5071109;28;20113;-55
2022/10/23 05:06:38;;;;;;;12.85;7.47;;;;;;;10.45;100.00;101059.25;5071103;28;20415;-55
2022/10/23 05:09:07;;;;;;;14.82;7.75;;;;;;;10.43;100.00;101063.75;5071551;28;20044;-55
2022/10/23 05:11:35;;;;;;;16.58;7.38;;;;;;;10.46;100.00;101059.16;5068935;28;20045;-47
2022/10/23 05:14:03;;;;;;;14.50;7.85;;;;;;;10.49;100.00;101058.13;5068781;28;20040;-56
2022/10/23 05:16:42;;;;;;;15.00;6.53;;;;;;;10.48;100.00;101052.03;5068596;28;20049;-55
2022/10/23 05:19:18;;;;;;;13.67;7.27;;;;;;;10.49;100.00;101053.69;5068332;28;20105;-48
2022/10/23 05:21:54;;;;;;;13.68;7.13;;;;;;;10.49;100.00;101051.06;5072287;28;20068;-55
2022/10/23 05:24:23;;;;;;;13.97;7.13;;;;;;;10.51;100.00;101053.59;5070305;28;20045;-48
2022/10/23 05:26:52;;;;;;;13.10;6.95;;;;;;;10.55;100.00;101057.75;5068981;28;20040;-48
2022/10/23 05:29:20;;;;;;;12.20;6.85;;;;;;;10.54;100.00;101052.56;5069164;28;20053;-49
2022/10/23 05:31:54;;;;;;;14.90;7.00;;;;;;;10.56;100.00;101048.06;5069105;28;20064;-52
2022/10/23 05:34:25;;;;;;;9.93;6.53;;;;;;;10.56;100.00;101043.66;5071869;28;20037;-50
2022/10/23 05:36:54;;;;;;;15.75;7.45;;;;;;;10.55;100.00;101044.59;5072125;28;20562;-50
2022/10/23 05:39:23;;;;;;;18.20;7.78;;;;;;;10.62;100.00;101040.66;5071814;28;20487;-51
2022/10/23 05:41:53;;;;;;;16.48;8.00;;;;;;;10.65;100.00;101035.19;5071932;28;20452;-50
2022/10/23 05:44:22;;;;;;;15.60;8.13;;;;;;;10.64;100.00;101040.56;5071753;28;20598;-52
2022/10/23 05:46:51;;;;;;;13.25;7.57;;;;;;;10.70;100.00;101047.22;5071301;28;20044;-52
2022/10/23 05:49:19;;;;;;;12.15;7.53;;;;;;;10.74;100.00;101052.16;5066363;28;20061;-47
2022/10/23 05:51:47;;;;;;;15.45;7.32;;;;;;;10.77;100.00;101048.50;5070029;28;20095;-50
2022/10/23 05:54:15;;;;;;;14.55;7.47;;;;;;;10.81;100.00;101047.38;5071573;28;20048;-56
2022/10/23 05:56:43;;;;;;;14.60;7.78;;;;;;;10.82;100.00;101042.03;5070178;28;20143;-47
2022/10/23 05:59:12;;;;;;;16.52;7.70;;;;;;;10.83;100.00;101027.91;5074594;28;20072;-48
2022/10/23 06:01:40;;;;;;;16.40;7.93;;;;;;;10.87;100.00;101033.84;5074845;28;20128;-52
2022/10/23 06:04:09;;;;;;;16.10;8.00;;;;;;;10.90;100.00;101038.91;5074878;28;20047;-56
2022/10/23 06:06:37;;;;;;;16.45;8.95;;;;;;;10.97;100.00;101034.09;5073539;28;20538;-49
2022/10/23 06:09:06;;;;;;;16.92;8.52;;;;;;;11.00;100.00;101036.53;5071106;28;20053;-48
2022/10/23 06:11:34;;;;;;;13.93;7.57;;;;;;;11.04;100.00;101031.91;5075779;28;20537;-51
2022/10/23 06:14:02;;;;;;;14.80;8.73;;;;;;;11.05;100.00;101037.09;5075182;28;20048;-49
2022/10/23 06:16:30;;;;;;;13.63;8.00;;;;;;;11.07;100.00;101021.19;5075306;28;20511;-46
2022/10/23 06:18:59;;;;;;;16.30;8.10;;;;;;;11.07;100.00;101018.56;5073894;28;20576;-50
2022/10/23 06:21:28;;;;;;;16.45;7.22;;;;;;;11.13;100.00;101019.00;5074973;28;20041;-51
2022/10/23 06:23:56;;;;;;;13.25;7.70;;;;;;;11.15;100.00;101014.50;5075137;28;20043;-49
2022/10/23 06:26:24;;;;;;;16.38;7.30;;;;;;;11.16;100.00;101013.53;5075253;28;20395;-51
2022/10/23 06:28:53;;;;;;;12.35;7.32;;;;;;;11.19;100.00;101012.50;5075116;28;20102;-53
2022/10/23 06:31:25;;;;;;;15.02;7.88;;;;;;;11.21;100.00;100999.22;5075076;28;20119;-52
2022/10/23 06:33:54;;;;;;;15.00;7.60;;;;;;;11.23;100.00;101006.09;5074954;28;20555;-53
2022/10/23 06:36:23;;;;;;;15.02;7.35;;;;;;;11.26;100.00;101000.66;5074885;28;20124;-49
2022/10/23 06:38:55;;;;;;;20.10;8.93;;;;;;;11.29;100.00;101000.44;5074794;28;20101;-50
2022/10/23 06:41:23;;;;;;;14.38;7.72;;;;;;;11.30;100.00;100996.00;5073407;28;20056;-51
2022/10/23 06:43:52;;;;;;;14.65;7.68;;;;;;;11.31;100.00;100990.63;5074574;28;20037;-53
2022/10/23 06:46:20;;;;;;;16.27;7.88;;;;;;;11.34;100.00;100992.22;5075003;28;20037;-51
2022/10/23 06:48:48;;;;;;;16.83;7.78;;;;;;;11.39;100.00;100994.56;5074540;28;20047;-49
2022/10/23 06:51:17;;;;;;;13.55;7.82;;;;;;;11.42;100.00;100984.66;5074065;28;20051;-50
2022/10/23 06:53:46;;;;;;;15.43;7.95;;;;;;;11.48;100.00;100992.16;5074591;28;20427;-54
2022/10/23 06:56:16;;;;;;;14.20;7.68;;;;;;;11.52;100.00;100995.44;5074461;28;20403;-49
2022/10/23 06:58:44;;;;;;;15.45;8.38;;;;;;;11.52;100.00;100998.09;5074489;28;20055;-52
2022/10/23 07:01:15;;;;;;;13.90;7.65;;;;;;;11.53;100.00;100994.47;5074421;28;20048;-49
2022/10/23 07:03:43;;;;;;;15.68;7.68;;;;;;;11.57;100.00;100984.59;5074001;28;20056;-54
2022/10/23 07:06:12;;;;;;;16.27;8.05;;;;;;;11.58;100.00;100981.84;5070472;28;20131;-51
2022/10/23 07:08:40;;;;;;;17.05;7.80;;;;;;;11.62;100.00;100978.06;5072379;28;20458;-51
2022/10/23 07:11:10;;;;;;;13.85;7.70;;;;;;;11.65;100.00;100983.13;5073723;28;20045;-56
2022/10/23 07:13:41;;;;;;;17.30;7.95;;;;;;;11.65;100.00;100977.84;5074455;28;20503;-56
2022/10/23 07:16:12;;;;;;;20.85;8.25;;;;;;;11.71;100.00;100981.03;5070783;28;20060;-56
2022/10/23 07:18:40;;;;;;;16.08;7.43;;;;;;;11.72;100.00;100987.97;5071378;28;20044;-56
2022/10/23 07:21:08;;;;;;;15.52;8.13;;;;;;;11.75;100.00;100986.00;5069898;28;20071;-56
2022/10/23 07:23:36;;;;;;;19.88;8.50;;;;;;;11.77;100.00;100975.34;5072411;28;20041;-56
2022/10/23 07:26:07;;;;;;;15.85;8.10;;;;;;;11.80;100.00;100980.41;5071797;28;20453;-56
2022/10/23 07:28:35;;;;;;;13.02;7.88;;;;;;;11.82;100.00;100971.44;5070615;28;20037;-57
2022/10/23 07:31:05;;;;;;;12.73;7.20;;;;;;;11.85;100.00;100973.03;5070779;28;20094;-57
2022/10/23 07:33:33;;;;;;;12.48;6.82;;;;;;;11.88;100.00;100972.81;5070828;28;20052;-58
2022/10/23 07:36:04;;;;;;;13.90;7.20;;;;;;;11.87;100.00;100976.38;5070457;28;20521;-57
2022/10/23 07:38:32;;;;;;;14.88;7.53;;;;;;;11.95;100.00;100974.09;5073445;28;20098;-57
2022/10/23 07:41:01;;;;;;;13.52;6.75;;;;;;;12.00;100.00;100971.16;5073345;28;20133;-56
2022/10/23 07:43:30;;;;;;;15.88;7.13;;;;;;;12.03;100.00;100972.75;5073381;28;20491;-57
2022/10/23 07:45:59;;;;;;;15.80;6.70;;;;;;;12.05;100.00;100966.41;5073464;28;20052;-56
2022/10/23 07:48:29;;;;;;;12.75;6.95;;;;;;;12.07;100.00;100968.97;5072976;28;20048;-57
2022/10/23 07:50:59;;;;;;;16.75;6.80;;;;;;;12.12;100.00;100964.19;5072730;28;20137;-56
2022/10/23 07:53:28;;;;;;;14.02;6.72;;;;;;;12.17;100.00;100965.56;5072220;28;20056;-56
2022/10/23 07:55:58;;;;;;;14.48;7.22;;;;;;;12.23;100.00;100952.88;5069802;28;20498;-57
2022/10/23 07:58:27;;;;;;;14.98;6.47;;;;;;;12.36;100.00;100958.16;5069849;28;20048;-52
2022/10/23 08:01:01;;;;;;;12.60;6.53;;;;;;;12.38;100.00;100953.59;5069998;28;20041;-50
2022/10/23 08:03:32;;;;;;;13.68;6.88;;;;;;;12.41;100.00;100948.97;5072028;28;20044;-50
2022/10/23 08:06:00;;;;;;;15.52;6.18;;;;;;;12.45;100.00;100954.88;5073236;28;20048;-50
2022/10/23 08:08:28;;;;;;;18.65;6.50;;;;;;;12.47;100.00;100955.59;5067848;28;20075;-51
2022/10/23 08:10:57;;;;;;;12.25;6.07;;;;;;;12.51;100.00;100955.25;5070500;28;20052;-52
2022/10/23 08:13:25;;;;;;;16.65;6.38;;;;;;;12.56;100.00;100949.66;5071581;28;20062;-52
2022/10/23 08:15:54;;;;;;;14.95;6.20;;;;;;;12.58;100.00;100953.00;5073155;28;20045;-50
2022/10/23 08:18:22;;;;;;;15.25;6.47;;;;;;;12.63;100.00;100956.16;5072876;28;20127;-53
2022/10/23 08:20:52;;;;;;;11.60;5.82;;;;;;;12.67;100.00;100949.72;5072493;28;20056;-49
2022/10/23 08:23:22;;;;;;;11.30;6.07;;;;;;;12.71;100.00;100936.28;5068490;28;20476;-51
2022/10/23 08:25:57;;;;;;;12.20;5.78;;;;;;;12.80;100.00;100947.03;5069790;28;20041;-47
2022/10/23 08:28:25;;;;;;;16.88;6.50;;;;;;;12.80;100.00;100943.53;5071811;28;20460;-51
2022/10/23 08:30:53;;;;;;;15.50;6.05;;;;;;;12.82;100.00;100939.00;5072667;28;20040;-48
2022/10/23 08:33:22;;;;;;;14.45;5.93;;;;;;;12.87;100.00;100939.53;5072491;28;20056;-50
2022/10/23 08:35:52;;;;;;;10.00;5.32;;;;;;;12.89;100.00;100932.31;5072406;28;20095;-51
2022/10/23 08:38:20;;;;;;;11.13;5.60;;;;;;;12.93;100.00;100922.38;5072090;28;20055;-52
2022/10/23 08:40:49;;;;;;;10.82;5.35;;;;;;;12.98;100.00;100920.25;5072108;28;20056;-51
2022/10/23 08:43:23;;;;;;;14.25;5.47;;;;;;;13.03;100.00;100918.09;5072358;28;20049;-51
2022/10/23 08:45:55;;;;;;;13.70;5.68;;;;;;;13.08;100.00;100923.06;5072587;28;20047;-51
2022/10/23 08:48:29;;;;;;;15.10;5.80;;;;;;;13.10;100.00;100914.06;5072599;28;20392;-53
2022/10/23 08:51:06;;;;;;;12.73;5.13;;;;;;;13.16;100.00;100912.75;5071218;28;20056;-50
2022/10/23 08:53:41;;;;;;;14.70;5.72;;;;;;;13.22;100.00;100909.63;5068292;28;20044;-51
2022/10/23 08:56:14;;;;;;;17.25;5.28;;;;;;;13.24;100.00;100913.03;5069141;28;20048;-51
2022/10/23 08:58:47;;;;;;;12.90;5.57;;;;;;;13.36;100.00;100900.69;5072745;28;20060;-53
2022/10/23 09:01:30;;;;;;;10.93;5.47;;;;;;;13.43;100.00;100885.22;5072520;28;20537;-53
2022/10/23 09:03:59;;;;;;;12.23;5.13;;;;;;;13.53;100.00;100907.34;5071618;28;20507;-52
2022/10/23 09:06:39;;;;;;;12.40;5.57;;;;;;;13.54;100.00;100903.75;5071634;28;20065;-51
2022/10/23 09:09:38;;;;;;;10.75;5.70;;;;;;;13.59;100.00;100906.88;5071404;28;20814;-52
2022/10/23 09:12:14;;;;;;;16.00;5.57;;;;;;;13.68;100.00;100892.13;5072006;28;20055;-52
2022/10/23 09:15:02;;;;;;;12.15;5.15;;;;;;;13.75;100.00;100885.38;5068721;28;20049;-53
2022/10/23 09:17:33;;;;;;;14.05;5.18;;;;;;;13.81;100.00;100881.41;5070278;28;20052;-52
2022/10/23 09:20:12;;;;;;;10.80;5.10;;;;;;;13.88;100.00;100877.34;5072042;28;20098;-51
2022/10/23 09:22:43;;;;;;;11.52;5.47;;;;;;;13.93;100.00;100869.03;5070062;28;20045;-50
2022/10/23 09:25:16;;;;;;;11.27;5.43;;;;;;;13.97;100.00;100870.47;5066874;28;20377;-58
2022/10/23 09:27:47;;;;;;;13.52;5.60;;;;;;;13.97;100.00;100866.03;5068672;28;20049;-54
2022/10/23 09:30:34;;;;;;;14.43;5.28;;;;;;;13.96;100.00;100863.50;5069430;28;20775;-53
2022/10/23 09:33:14;;;;;;;11.65;4.72;;;;;;;14.01;100.00;100866.63;5073854;28;20041;-51
2022/10/23 09:35:56;;;;;;;10.75;5.07;;;;;;;14.06;100.00;100858.31;5075807;28;20041;-52
2022/10/23 09:38:32;;;;;;;11.27;4.93;;;;;;;14.14;100.00;100859.41;5075928;28;20110;-52
2022/10/23 09:41:06;;;;;;;10.95;4.78;;;;;;;14.15;100.00;100861.09;5076054;28;20520;-51
2022/10/23 09:43:34;;;;;;;14.23;5.22;;;;;;;14.24;100.00;100848.94;5076102;28;20048;-52
2022/10/23 09:46:05;;;;;;;13.65;4.82;;;;;;;14.30;100.00;100855.53;5075529;28;20394;-51
2022/10/23 09:48:34;;;;;;;11.32;4.63;;;;;;;14.34;100.00;100854.31;5072473;28;20051;-53
2022/10/23 09:51:04;;;;;;;10.40;4.95;;;;;;;14.34;100.00;100852.53;5072077;28;20056;-52
2022/10/23 09:53:37;;;;;;;11.55;4.40;;;;;;;14.40;100.00;100847.69;5074220;28;20102;-50
2022/10/23 09:56:23;;;;;;;9.40;4.72;;;;;;;14.43;100.00;100848.28;5075783;28;20089;-52
2022/10/23 09:58:55;;;;;;;12.27;4.43;;;;;;;14.48;100.00;100842.59;5074342;28;20079;-53
2022/10/23 10:01:25;;;;;;;15.73;4.93;;;;;;;14.52;100.00;100833.47;5075724;28;20044;-53
2022/10/23 10:03:54;;;;;;;14.00;4.22;;;;;;;14.55;100.00;100822.63;5075182;28;20147;-58
2022/10/23 10:06:27;;;;;;;13.48;4.90;;;;;;;14.60;100.00;100827.53;5075456;28;20040;-57
2022/10/23 10:08:58;;;;;;;10.60;4.65;;;;;;;14.63;100.00;100833.47;5075273;28;20483;-59
2022/10/23 10:11:33;;;;;;;10.30;4.88;;;;;;;14.69;100.00;100829.47;5075250;28;20495;-58
2022/10/23 10:14:19;;;;;;;13.07;4.90;;;;;;;14.72;100.00;100817.78;5075394;28;20057;-58
2022/10/23 10:16:51;;;;;;;10.10;4.80;;;;;;;14.75;100.00;100806.94;5074215;28;20051;-59
2022/10/23 10:19:33;;;;;;;11.57;4.35;;;;;;;14.74;100.00;100816.69;5075402;28;20041;-58
2022/10/23 10:22:11;;;;;;;11.45;3.95;;;;;;;14.78;100.00;100809.31;5075075;28;20056;-59
2022/10/23 10:24:51;;;;;;;11.63;4.20;;;;;;;14.92;100.00;100805.53;5073090;28;20072;-58
2022/10/23 10:27:35;;;;;;;9.88;4.10;;;;;;;14.96;100.00;100799.00;5071670;28;20522;-59
2022/10/23 10:30:10;;;;;;;8.02;3.53;;;;;;;14.96;100.00;100797.19;5074740;28;20044;-57
2022/10/23 10:32:43;;;;;;;10.85;4.05;;;;;;;15.00;100.00;100792.47;5074938;28;20048;-58
2022/10/23 10:35:22;;;;;;;;;;;;;;;15.04;100.00;100792.06;5072904;28;20043;-59
2022/10/23 10:38:14;;;;;;;10.70;3.65;;;;;;;15.10;100.00;100784.59;5071875;28;19924;-59
2022/10/23 10:41:00;;;;;;;9.95;3.72;;;;;;;15.13;100.00;100781.66;5074071;28;20072;-59
2022/10/23 10:43:36;;;;;;;10.52;3.97;;;;;;;15.21;100.00;100773.91;5070792;28;20110;-59
2022/10/23 10:46:12;;;;;;;9.60;4.07;;;;;;;15.20;100.00;100770.44;5071424;28;20041;-59
2022/10/23 10:48:48;;;;;;;11.38;4.28;;;;;;;15.31;100.00;100766.84;5071628;28;20076;-58
2022/10/23 10:51:24;;;;;;;8.63;3.67;;;;;;;15.34;100.00;100753.34;5071817;28;20481;-59
2022/10/23 10:54:03;;;;;;;11.27;3.83;;;;;;;15.35;100.00;100744.41;5071251;28;20048;-59
2022/10/23 10:56:38;;;;;;;9.43;4.00;;;;;;;15.35;100.00;100731.16;5071470;28;20037;-58
2022/10/23 10:59:16;;;;;;;8.75;4.00;;;;;;;15.32;100.00;100725.28;5071190;28;20049;-59
2022/10/23 11:01:50;;;;;;;8.90;3.60;;;;;;;15.42;100.00;100723.53;5071662;28;20049;-59
2022/10/23 11:04:32;;;;;;;8.40;3.88;;;;;;;15.49;100.00;100710.56;5071016;28;20052;-59
2022/10/23 11:07:06;;;;;;;11.63;3.75;;;;;;;15.58;100.00;100708.91;5071179;28;20046;-58
2022/10/23 11:09:34;;;;;;;8.65;3.08;;;;;;;15.64;100.00;100698.59;5070737;28;20543;-58
2022/10/23 11:12:04;;;;;;;8.45;3.45;;;;;;;15.70;100.00;100706.00;5070821;28;20057;-59
2022/10/23 11:14:34;;;;;;;7.68;3.50;;;;;;;15.74;100.00;100703.91;5071307;28;20048;-59
2022/10/23 11:17:09;;;;;;;8.35;3.13;;;;;;;15.80;100.00;100691.97;5071076;28;20058;-60
2022/10/23 11:19:43;;;;;;;9.15;3.13;;;;;;;15.85;100.00;100695.88;5072827;28;20052;-58
2022/10/23 11:22:21;;;;;;;9.23;3.28;;;;;;;15.89;100.00;100697.25;5070482;28;20570;-58
2022/10/23 11:25:21;;;;;;;11.07;3.50;;;;;;;15.98;100.00;100695.63;5069776;28;20391;-59
2022/10/23 11:28:30;;;;;;;8.10;3.47;;;;;;;16.07;100.00;100687.81;5070755;28;20044;-59
2022/10/23 11:31:14;;;;;;;7.97;3.40;;;;;;;16.26;100.00;100686.97;5064687;28;20060;-59
2022/10/23 11:34:20;;;;;;;10.55;3.30;;;;;;;16.30;100.00;100689.19;5070943;28;20044;-55